Time;durP1;ratioP1;P1;durP2;ratioP2;P2;SDS_P1;SDS_P2;PMS_P1;PMS_P2;Temp;Humidity;BMP_temperature;BMP_pressure;BME280_temperature;BME280_humidity;BME280_pressure;Samples;Min_cycle;Max_cycle;Signal;HPM_P1;HPM_P2
2023/03/23 00:02:24;;;;;;;;;;;;;;;17.42;47.23;100875.16;4997572;28;1135;-52
2023/03/23 00:04:50;;;;;;;;;;;;;;;18.70;46.05;100880.47;4996913;28;1072;-52
2023/03/23 00:07:20;;;;;;;;;;;;;;;18.14;46.91;100871.41;4997616;28;1029;-52
2023/03/23 00:09:55;;;;;;;;;;;;;;;17.49;47.11;100874.03;4997112;28;1163;-51
2023/03/23 00:12:33;;;;;;;;;;;;;;;17.33;45.89;100870.47;4997548;28;1048;-52
2023/03/23 00:15:03;;;;;;;;;;;;;;;18.33;46.63;100870.75;5027817;28;1143;-52
2023/03/23 00:17:28;;;;;;;;;;;;;;;17.37;47.60;100871.59;4997646;28;1195;-51
2023/03/23 00:19:54;;;;;;;;;;;;;;;18.42;46.64;100866.31;5000404;28;1530;-51
2023/03/23 00:22:20;;;;;;;;;;;;;;;18.07;47.13;100866.19;4990069;28;760;-50
2023/03/23 00:24:46;;;;;;;;;;;;;;;17.49;46.88;100868.53;4996947;28;1056;-53
2023/03/23 00:27:14;;;;;;;;;;;;;;;18.61;46.10;100866.50;4980561;28;1053;-52
2023/03/23 00:29:41;;;;;;;;;;;;;;;17.56;47.35;100858.09;4997325;28;1056;-52
2023/03/23 00:32:12;;;;;;;;;;;;;;;17.16;46.73;100866.09;4997225;28;1049;-52
2023/03/23 00:34:38;;;;;;;;;;;;;;;18.01;47.26;100863.78;4996432;28;1195;-51
2023/03/23 00:37:03;;;;;;;;;;;;;;;17.33;47.16;100859.50;4997138;28;1917;-52
2023/03/23 00:39:29;;;;;;;;;;;;;;;17.04;46.57;100868.28;4997313;28;1084;-52
2023/03/23 00:42:00;;;;;;;;;;;;;;;18.09;46.77;100861.25;4997153;28;1167;-52
2023/03/23 00:44:33;;;;;;;;;;;;;;;17.48;47.27;100866.91;4997255;28;1060;-51
2023/03/23 00:46:58;;;;;;;;;;;;;;;17.97;47.35;100852.50;4996681;28;873;-51
2023/03/23 00:49:25;;;;;;;;;;;;;;;18.40;46.33;100854.78;4996622;28;1093;-50
2023/03/23 00:51:51;;;;;;;;;;;;;;;17.46;47.32;100867.19;5028584;28;1118;-51
2023/03/23 00:54:17;;;;;;;;;;;;;;;17.93;47.35;100863.22;4996957;28;1084;-52
2023/03/23 00:56:42;;;;;;;;;;;;;;;17.71;47.52;100854.47;4996511;28;1987;-52
2023/03/23 00:59:08;;;;;;;;;;;;;;;17.17;47.39;100855.94;4995345;28;1132;-52
2023/03/23 01:01:33;;;;;;;;;;;;;;;18.08;47.18;100854.09;5034195;28;1326;-51
2023/03/23 01:04:00;;;;;;;;;;;;;;;17.57;47.68;100848.72;5003317;28;1065;-51
2023/03/23 01:06:30;;;;;;;;;;;;;;;17.21;47.12;100851.53;5002139;28;1578;-51
2023/03/23 01:08:56;;;;;;;;;;;;;;;17.82;47.47;100849.75;5035142;28;1542;-51
2023/03/23 01:11:24;;;;;;;;;;;;;;;17.20;47.70;100841.66;5002951;28;838;-52
2023/03/23 01:13:50;;;;;;;;;;;;;;;18.09;46.96;100844.72;5000737;28;1777;-52
2023/03/23 01:16:15;;;;;;;;;;;;;;;18.33;46.57;100838.56;4994331;28;1906;-51
2023/03/23 01:18:41;;;;;;;;;;;;;;;17.50;47.09;100848.19;5001576;28;1067;-51
2023/03/23 01:21:07;;;;;;;;;;;;;;;18.71;46.16;100838.88;5003139;28;1064;-51
2023/03/23 01:23:33;;;;;;;;;;;;;;;17.76;47.27;100844.28;5001572;28;1115;-51
2023/03/23 01:26:02;;;;;;;;;;;;;;;17.32;46.99;100842.19;5003129;28;1056;-50
2023/03/23 01:28:28;;;;;;;;;;;;;;;18.19;46.65;100838.38;5017881;28;1073;-52
2023/03/23 01:30:58;;;;;;;;;;;;;;;17.39;47.41;100847.38;5003155;28;1132;-53
2023/03/23 01:33:24;;;;;;;;;;;;;;;18.96;45.50;100856.34;5003165;28;1298;-53
2023/03/23 01:35:50;;;;;;;;;;;;;;;18.34;46.55;100842.97;5001402;28;1911;-53
2023/03/23 01:38:16;;;;;;;;;;;;;;;17.58;47.23;100847.63;5001700;28;1145;-52
2023/03/23 01:40:41;;;;;;;;;;;;;;;17.39;46.79;100852.88;5003228;28;1025;-52
2023/03/23 01:43:10;;;;;;;;;;;;;;;18.32;46.69;100847.09;5017351;28;1495;-51
2023/03/23 01:45:36;;;;;;;;;;;;;;;17.42;47.21;100847.66;4985313;28;1159;-51
2023/03/23 01:48:03;;;;;;;;;;;;;;;18.36;46.95;100846.25;5001935;28;1174;-50
2023/03/23 01:50:31;;;;;;;;;;;;;;;17.79;47.23;100848.38;5017685;28;1214;-50
2023/03/23 01:52:58;;;;;;;;;;;;;;;17.75;47.72;100850.06;5005644;28;1139;-47
2023/03/23 01:55:23;;;;;;;;;;;;;;;18.78;45.66;100844.88;4985552;28;1914;-49
2023/03/23 01:57:49;;;;;;;;;;;;;;;17.61;47.13;100847.91;5001423;28;1373;-50
2023/03/23 02:00:16;;;;;;;;;;;;;;;17.44;47.06;100850.13;4985414;28;1403;-50
2023/03/23 02:02:46;;;;;;;;;;;;;;;18.16;46.86;100843.59;5034346;28;1239;-49
2023/03/23 02:05:15;;;;;;;;;;;;;;;17.47;46.97;100851.50;5017269;28;1379;-50
2023/03/23 02:07:42;;;;;;;;;;;;;;;17.78;47.60;100850.31;5001295;28;1189;-50
2023/03/23 02:10:08;;;;;;;;;;;;;;;17.56;47.51;100849.84;5001347;28;1294;-50
2023/03/23 02:12:35;;;;;;;;;;;;;;;17.22;46.74;100847.69;4998200;28;1256;-52
2023/03/23 02:15:02;;;;;;;;;;;;;;;18.51;46.14;100853.59;5000075;28;1036;-52
2023/03/23 02:17:31;;;;;;;;;;;;;;;17.41;47.35;100851.50;4998483;28;1914;-52
2023/03/23 02:20:13;;;;;;;;;;;;;;;17.48;47.43;100855.91;4999352;28;1068;-51
2023/03/23 02:22:45;;;;;;;;;;;;;;;17.88;47.11;100862.38;4997839;28;1418;-50
2023/03/23 02:25:13;;;;;;;;;;;;;;;17.51;47.38;100852.59;5013025;28;1084;-50
2023/03/23 02:27:47;;;;;;;;;;;;;;;19.11;44.88;100858.97;4978455;28;1169;-51
2023/03/23 02:30:20;;;;;;;;;;;;;;;17.69;47.02;100860.25;5017925;28;1148;-51
2023/03/23 02:32:57;;;;;;;;;;;;;;;17.54;47.37;100854.78;5030878;28;1012;-50
2023/03/23 02:35:24;;;;;;;;;;;;;;;17.86;47.30;100859.09;5025527;28;1910;-51
2023/03/23 02:37:50;;;;;;;;;;;;;;;17.30;47.07;100858.13;4998140;28;1080;-46
2023/03/23 02:40:16;;;;;;;;;;;;;;;17.78;47.58;100858.59;5013557;28;1080;-51
2023/03/23 02:42:42;;;;;;;;;;;;;;;17.53;47.30;100866.88;4999255;28;1127;-51
2023/03/23 02:45:09;;;;;;;;;;;;;;;18.17;46.96;100859.81;5031041;28;1224;-51
2023/03/23 02:47:35;;;;;;;;;;;;;;;18.86;45.31;100859.13;5030063;28;1151;-51
2023/03/23 02:50:00;;;;;;;;;;;;;;;17.61;47.45;100866.31;5013910;28;1143;-51
2023/03/23 02:52:27;;;;;;;;;;;;;;;17.34;46.68;100864.72;4997845;28;1172;-51
2023/03/23 02:54:53;;;;;;;;;;;;;;;17.77;46.94;100865.19;5029161;28;1298;-51
2023/03/23 02:57:18;;;;;;;;;;;;;;;17.60;47.45;100868.25;4990283;28;1910;-51
2023/03/23 02:59:45;;;;;;;;;;;;;;;17.43;47.61;100867.72;4997560;28;1225;-51
2023/03/23 03:02:17;;;;;;;;;;;;;;;18.81;45.60;100871.84;4999033;28;1012;-50
2023/03/23 03:04:45;;;;;;;;;;;;;;;17.67;47.23;100870.72;5030333;28;981;-46
2023/03/23 03:07:15;;;;;;;;;;;;;;;17.18;46.90;100879.56;5029932;28;1036;-49
2023/03/23 03:09:59;;;;;;;;;;;;;;;17.98;47.18;100876.16;5013243;28;1126;-46
2023/03/23 03:12:29;;;;;;;;;;;;;;;17.48;47.37;100883.41;4995305;28;1211;-49
2023/03/23 03:15:09;;;;;;;;;;;;;;;17.14;46.95;100876.53;5013310;28;1286;-49
2023/03/23 03:17:35;;;;;;;;;;;;;;;16.95;46.17;100881.75;4997082;28;1140;-49
2023/03/23 03:20:10;;;;;;;;;;;;;;;18.03;46.46;100881.63;5029846;28;1121;-50
2023/03/23 03:22:41;;;;;;;;;;;;;;;17.16;47.51;100879.00;5011963;28;1127;-50
2023/03/23 03:25:07;;;;;;;;;;;;;;;18.64;46.05;100872.22;4997920;28;1076;-51
2023/03/23 03:27:34;;;;;;;;;;;;;;;17.90;46.91;100874.75;5030064;28;1135;-49
2023/03/23 03:30:11;;;;;;;;;;;;;;;17.35;47.23;100873.75;4996850;28;1413;-48
2023/03/23 03:32:50;;;;;;;;;;;;;;;18.50;46.31;100873.16;4996403;28;1270;-46
2023/03/23 03:35:16;;;;;;;;;;;;;;;17.43;47.32;100879.56;5012968;28;1910;-48
2023/03/23 03:37:42;;;;;;;;;;;;;;;17.69;47.79;100882.25;4998087;28;1048;-47
2023/03/23 03:40:11;;;;;;;;;;;;;;;17.59;47.59;100885.03;4997965;28;1158;-47
2023/03/23 03:42:39;;;;;;;;;;;;;;;18.26;46.98;100884.84;5029696;28;1208;-48
2023/03/23 03:45:05;;;;;;;;;;;;;;;19.02;45.34;100885.50;5029782;28;1062;-50
2023/03/23 03:47:31;;;;;;;;;;;;;;;17.75;47.18;100878.41;4997550;28;1168;-51
2023/03/23 03:49:56;;;;;;;;;;;;;;;17.32;46.69;100882.56;4996911;28;1308;-50
2023/03/23 03:52:23;;;;;;;;;;;;;;;18.11;47.03;100881.03;4996293;28;1127;-50
2023/03/23 03:54:49;;;;;;;;;;;;;;;17.52;47.75;100888.06;4997660;28;1077;-50
2023/03/23 03:57:17;;;;;;;;;;;;;;;17.84;47.59;100888.81;5029282;28;1906;-53
2023/03/23 04:00:12;;;;;;;;;;;;;;;18.40;46.31;100888.63;4997427;28;1033;-53
2023/03/23 04:02:41;;;;;;;;;;;;;;;17.45;47.13;100896.56;4991821;28;958;-51
2023/03/23 04:05:08;;;;;;;;;;;;;;;18.30;47.11;100895.00;4996483;28;1219;-53
2023/03/23 04:07:37;;;;;;;;;;;;;;;17.67;47.37;100898.22;4998145;28;1089;-53
2023/03/23 04:10:07;;;;;;;;;;;;;;;17.23;47.11;100896.84;4995352;28;1241;-54
2023/03/23 04:12:34;;;;;;;;;;;;;;;18.20;46.75;100896.97;5020020;28;1872;-53
2023/03/23 04:15:34;;;;;;;;;;;;;;;17.34;47.18;100899.63;4983692;28;1973;-49
2023/03/23 04:18:00;;;;;;;;;;;;;;;18.08;47.07;100900.06;4997397;28;1117;-52
2023/03/23 04:20:26;;;;;;;;;;;;;;;17.57;47.73;100899.06;4996137;28;1215;-50
2023/03/23 04:22:54;;;;;;;;;;;;;;;17.23;47.05;100898.78;4995673;28;1345;-48
2023/03/23 04:25:22;;;;;;;;;;;;;;;18.19;46.66;100903.56;4983407;28;1015;-48
2023/03/23 04:27:53;;;;;;;;;;;;;;;17.36;47.16;100911.16;4997114;28;1146;-52
2023/03/23 04:30:24;;;;;;;;;;;;;;;19.09;45.11;100910.81;4996218;28;1137;-48
2023/03/23 04:33:14;;;;;;;;;;;;;;;18.16;46.66;100909.66;4995467;28;1258;-53
2023/03/23 04:35:45;;;;;;;;;;;;;;;17.49;47.02;100907.00;5028025;28;1913;-47
2023/03/23 04:38:26;;;;;;;;;;;;;;;18.52;46.45;100913.06;4995887;28;1394;-51
2023/03/23 04:41:00;;;;;;;;;;;;;;;17.56;47.18;100913.09;4995894;28;1175;-49
2023/03/23 04:43:56;;;;;;;;;;;;;;;17.22;47.15;100913.63;4988233;28;1409;-50
2023/03/23 04:46:32;;;;;;;;;;;;;;;18.12;46.88;100915.72;4995571;28;1342;-50
2023/03/23 04:49:05;;;;;;;;;;;;;;;17.23;47.48;100920.78;4995573;28;1154;-47
2023/03/23 04:51:35;;;;;;;;;;;;;;;17.67;47.77;100913.88;4995895;28;1232;-54
2023/03/23 04:54:14;;;;;;;;;;;;;;;17.75;47.56;100916.06;4995368;28;1169;-54
2023/03/23 04:56:42;;;;;;;;;;;;;;;17.31;47.15;100922.97;4995767;28;1917;-55
2023/03/23 04:59:13;;;;;;;;;;;;;;;17.71;47.51;100921.31;4995671;28;1396;-53
2023/03/23 05:01:47;;;;;;;;;;;;;;;17.35;47.79;100926.84;5011078;28;1041;-53
2023/03/23 05:04:20;;;;;;;;;;;;;;;17.73;47.72;100919.09;4995465;28;1165;-54
2023/03/23 05:06:59;;;;;;;;;;;;;;;18.09;46.87;100924.53;4995436;28;1355;-54
2023/03/23 05:09:29;;;;;;;;;;;;;;;17.28;47.75;100934.53;4995332;28;1177;-54
2023/03/23 05:11:54;;;;;;;;;;;;;;;17.03;47.06;100929.84;4995329;28;1113;-53
2023/03/23 05:14:21;;;;;;;;;;;;;;;16.82;46.70;100940.75;4995266;28;1014;-53
2023/03/23 05:16:57;;;;;;;;;;;;;;;16.68;45.93;100943.19;4995410;28;1910;-52
2023/03/23 05:19:24;;;;;;;;;;;;;;;16.51;45.76;100943.41;4995588;28;1142;-50
2023/03/23 05:21:51;;;;;;;;;;;;;;;16.48;45.41;100949.44;4995307;28;1231;-50
2023/03/23 05:24:17;;;;;;;;;;;;;;;16.37;45.42;100953.25;4994742;28;1325;-48
2023/03/23 05:26:44;;;;;;;;;;;;;;;16.39;45.78;100953.78;4995292;28;1268;-46
2023/03/23 05:29:17;;;;;;;;;;;;;;;16.81;47.25;100950.06;4995401;28;1113;-49
2023/03/23 05:31:55;;;;;;;;;;;;;;;16.41;47.20;100949.69;4995281;28;1837;-44
2023/03/23 05:34:21;;;;;;;;;;;;;;;16.98;47.12;100960.84;4994899;28;1235;-46
2023/03/23 05:36:57;;;;;;;;;;;;;;;16.76;48.04;100961.06;4995113;28;1975;-44
2023/03/23 05:39:32;;;;;;;;;;;;;;;16.41;47.13;100963.41;4994971;28;1097;-45
2023/03/23 05:42:17;;;;;;;;;;;;;;;17.28;47.37;100967.50;5020756;28;1367;-45
2023/03/23 05:45:18;;;;;;;;;;;;;;;16.91;48.30;100968.53;4987774;28;1416;-48
2023/03/23 05:47:48;;;;;;;;;;;;;;;18.61;46.47;100969.19;5029440;28;1348;-46
2023/03/23 05:50:18;;;;;;;;;;;;;;;17.88;47.84;100972.41;4998997;28;1212;-45
2023/03/23 05:52:44;;;;;;;;;;;;;;;17.04;48.50;100979.03;4998610;28;1374;-47
2023/03/23 05:55:12;;;;;;;;;;;;;;;16.87;47.84;100983.88;4998864;28;1433;-49
2023/03/23 05:57:40;;;;;;;;;;;;;;;16.62;47.22;100965.41;4982529;28;1029;-50
2023/03/23 06:00:23;;;;;;;;;;;;;;;16.42;46.82;100970.56;4998236;28;1142;-46
2023/03/23 06:02:57;;;;;;;;;;;;;;;16.32;46.28;100978.72;5031401;28;1423;-47
2023/03/23 06:05:32;;;;;;;;;;;;;;;16.97;48.07;100978.47;4998045;28;1265;-49
2023/03/23 06:07:58;;;;;;;;;;;;;;;16.40;48.21;100980.97;4998368;28;1273;-47
2023/03/23 06:10:25;;;;;;;;;;;;;;;17.08;46.59;100985.63;4998344;28;1237;-46
2023/03/23 06:12:58;;;;;;;;;;;;;;;17.13;46.84;100992.22;5031105;28;1189;-50
2023/03/23 06:15:29;;;;;;;;;;;;;;;16.72;47.63;100981.94;4999302;28;1992;-51
2023/03/23 06:18:06;;;;;;;;;;;;;;;16.43;48.56;100991.41;4999465;28;1048;-46
2023/03/23 06:20:40;;;;;;;;;;;;;;;16.30;49.11;100978.19;4998517;28;1133;-50
2023/03/23 06:23:26;;;;;;;;;;;;;;;16.13;49.26;100991.25;4992074;28;1269;-49
2023/03/23 06:25:56;;;;;;;;;;;;;;;15.99;49.70;100985.38;4997828;28;1120;-48
2023/03/23 06:28:22;;;;;;;;;;;;;;;15.86;49.94;100992.16;5014606;28;1272;-50
2023/03/23 06:30:49;;;;;;;;;;;;;;;15.74;50.38;101000.56;4997907;28;1370;-46
2023/03/23 06:33:15;;;;;;;;;;;;;;;15.67;50.42;101000.78;4997825;28;1131;-49
2023/03/23 06:36:13;;;;;;;;;;;;;;;15.52;50.86;101006.13;4976196;28;1982;-45
2023/03/23 06:39:04;;;;;;;;;;;;;;;15.43;51.22;101010.41;4993184;28;1155;-50
2023/03/23 06:41:49;;;;;;;;;;;;;;;15.31;51.17;101000.44;4999115;28;1177;-50
2023/03/23 06:44:15;;;;;;;;;;;;;;;15.26;51.33;101005.88;4997611;28;1340;-44
2023/03/23 06:46:41;;;;;;;;;;;;;;;15.22;51.40;101002.84;4997650;28;1210;-45
2023/03/23 06:49:21;;;;;;;;;;;;;;;16.95;47.53;101012.78;5026248;28;1112;-47
2023/03/23 06:52:00;;;;;;;;;;;;;;;16.23;49.01;101008.59;4989347;28;1160;-47
2023/03/23 06:54:26;;;;;;;;;;;;;;;15.73;50.32;101021.66;4997373;28;1345;-52
2023/03/23 06:56:51;;;;;;;;;;;;;;;15.53;50.88;101016.81;5030004;28;2037;-44
2023/03/23 06:59:17;;;;;;;;;;;;;;;15.36;51.52;101022.44;4996237;28;2187;-50
2023/03/23 07:01:43;;;;;;;;;;;;;;;15.28;51.34;101019.31;4997348;28;1337;-52
2023/03/23 07:04:08;;;;;;;;;;;;;;;15.95;49.99;101015.28;4997180;28;1148;-46
2023/03/23 07:06:58;;;;;;;;;;;;;;;16.76;47.70;101027.78;4997142;28;1473;-53
2023/03/23 07:09:25;;;;;;;;;;;;;;;15.86;50.21;101028.63;4997176;28;1214;-52
2023/03/23 07:11:51;;;;;;;;;;;;;;;15.57;50.77;101028.09;4997260;28;1189;-44
2023/03/23 07:14:29;;;;;;;;;;;;;;;15.39;51.17;101021.91;4996723;28;1196;-52
2023/03/23 07:16:54;;;;;;;;;;;;;;;15.25;51.53;101025.31;4998355;28;1902;-53
2023/03/23 07:19:20;;;;;;;;;;;;;;;15.14;51.80;101025.22;4996673;28;1049;-53
2023/03/23 07:21:46;;;;;;;;;;;;;;;16.46;48.77;101028.47;4996739;28;1205;-57
2023/03/23 07:24:15;;;;;;;;;;;;;;;16.68;47.89;101035.72;4996808;28;1673;-53
2023/03/23 07:26:57;;;;;;;;;;;;;;;15.78;50.56;101039.22;4996996;28;958;-51
2023/03/23 07:29:24;;;;;;;;;;;;;;;15.49;50.93;101031.31;5012624;28;1206;-55
2023/03/23 07:32:00;;;;;;;;;;;;;;;15.34;51.35;101041.03;4996676;28;986;-55
2023/03/23 07:34:25;;;;;;;;;;;;;;;15.24;51.87;101035.47;4998074;28;1269;-51
2023/03/23 07:37:12;;;;;;;;;;;;;;;16.63;48.51;101033.75;4996489;28;1894;-55
2023/03/23 07:39:45;;;;;;;;;;;;;;;16.64;48.00;101027.19;4996577;28;1159;-53
2023/03/23 07:42:11;;;;;;;;;;;;;;;15.85;50.27;101024.25;4996647;28;1241;-53
2023/03/23 07:44:55;;;;;;;;;;;;;;;15.57;51.01;101025.34;4996398;28;1154;-55
2023/03/23 07:47:21;;;;;;;;;;;;;;;15.35;51.58;101026.25;4996480;28;1274;-55
2023/03/23 07:49:47;;;;;;;;;;;;;;;15.25;51.60;101025.31;4995913;28;1338;-51
2023/03/23 07:52:23;;;;;;;;;;;;;;;15.81;50.76;101036.00;4995867;28;1249;-51
2023/03/23 07:54:50;;;;;;;;;;;;;;;17.16;47.24;101030.97;5029396;28;1190;-57
2023/03/23 07:57:32;;;;;;;;;;;;;;;16.12;49.69;101034.31;4995926;28;1910;-56
2023/03/23 07:59:57;;;;;;;;;;;;;;;15.72;50.53;101039.22;4996163;28;1119;-52
2023/03/23 08:02:23;;;;;;;;;;;;;;;15.56;51.29;101037.41;4995961;28;1275;-55
2023/03/23 08:05:08;;;;;;;;;;;;;;;15.30;51.60;101026.19;4997233;28;1076;-51
2023/03/23 08:08:01;;;;;;;;;;;;;;;15.42;51.55;101038.91;4988826;28;1060;-57
2023/03/23 08:10:45;;;;;;;;;;;;;;;17.10;47.35;101035.63;4995970;28;990;-55
2023/03/23 08:13:33;;;;;;;;;;;;;;;16.04;49.96;101043.84;4995420;28;1434;-59
2023/03/23 08:16:18;;;;;;;;;;;;;;;15.60;50.96;101041.28;4995975;28;1906;-55
2023/03/23 08:18:59;;;;;;;;;;;;;;;15.38;51.76;101046.84;4996864;28;1123;-56
2023/03/23 08:21:36;;;;;;;;;;;;;;;15.24;51.76;101043.69;4996562;28;1044;-53
2023/03/23 08:24:24;;;;;;;;;;;;;;;16.50;48.92;101046.06;4996029;28;1222;-53
2023/03/23 08:26:52;;;;;;;;;;;;;;;16.77;48.16;101051.44;4990562;28;1214;-54
2023/03/23 08:29:35;;;;;;;;;;;;;;;15.84;50.49;101055.50;4990511;28;1334;-54
2023/03/23 08:32:10;;;;;;;;;;;;;;;15.58;50.84;101046.19;4997062;28;1041;-53
2023/03/23 08:35:15;;;;;;;;;;;;;;;15.36;51.62;101058.06;4986496;28;1192;-53
2023/03/23 08:37:54;;;;;;;;;;;;;;;16.05;50.23;101051.00;4995517;28;1152;-54
2023/03/23 08:40:52;;;;;;;;;;;;;;;16.81;47.82;101056.38;4966770;28;1387;-54
2023/03/23 08:43:50;;;;;;;;;;;;;;;15.84;50.38;101052.75;4973855;28;1220;-55
2023/03/23 08:46:34;;;;;;;;;;;;;;;15.52;51.23;101052.72;4983334;28;1254;-56
2023/03/23 08:49:06;;;;;;;;;;;;;;;15.36;51.52;101066.28;4980486;28;1228;-55
2023/03/23 08:51:50;;;;;;;;;;;;;;;15.66;50.94;101062.16;4995053;28;1227;-54
2023/03/23 08:54:35;;;;;;;;;;;;;;;16.95;47.53;101063.03;4976082;28;1205;-54
2023/03/23 08:57:20;;;;;;;;;;;;;;;15.85;50.51;101056.31;4996267;28;1972;-56
2023/03/23 08:59:59;;;;;;;;;;;;;;;15.57;51.22;101061.81;4995278;28;1244;-52
2023/03/23 09:02:49;;;;;;;;;;;;;;;15.33;51.62;101058.56;4976435;28;1155;-58
2023/03/23 09:05:24;;;;;;;;;;;;;;;15.58;51.22;101062.63;4992792;28;1100;-58
2023/03/23 09:08:03;;;;;;;;;;;;;;;17.18;47.21;101052.66;4988038;28;1208;-56
2023/03/23 09:10:30;;;;;;;;;;;;;;;16.19;49.37;101056.03;4988090;28;1071;-57
2023/03/23 09:12:55;;;;;;;;;;;;;;;15.72;50.86;101058.41;4991017;28;1037;-55
2023/03/23 09:15:21;;;;;;;;;;;;;;;15.50;51.45;101041.19;4996516;28;972;-57
2023/03/23 09:17:48;;;;;;;;;;;;;;;15.37;51.78;101045.97;4996030;28;1903;-55
2023/03/23 09:20:14;;;;;;;;;;;;;;;15.22;52.03;101045.81;4996299;28;1016;-55
2023/03/23 09:22:43;;;;;;;;;;;;;;;16.13;49.77;101038.72;4999233;28;1212;-55
2023/03/23 09:25:10;;;;;;;;;;;;;;;17.08;47.24;101045.22;5000379;28;1219;-56
2023/03/23 09:27:36;;;;;;;;;;;;;;;16.03;49.85;101042.22;5000266;28;888;-54
2023/03/23 09:30:06;;;;;;;;;;;;;;;15.66;50.83;101048.47;5000268;28;1164;-54
2023/03/23 09:32:33;;;;;;;;;;;;;;;15.45;51.67;101052.09;5000144;28;1118;-56
2023/03/23 09:34:58;;;;;;;;;;;;;;;15.28;51.73;101046.72;4995091;28;1092;-53
2023/03/23 09:37:24;;;;;;;;;;;;;;;15.29;51.96;101054.69;4981488;28;1910;-55
2023/03/23 09:39:50;;;;;;;;;;;;;;;16.87;47.92;101042.41;4997797;28;1290;-55
2023/03/23 09:42:23;;;;;;;;;;;;;;;16.46;48.76;101050.44;4987778;28;1045;-56
2023/03/23 09:44:55;;;;;;;;;;;;;;;15.77;50.50;101056.75;4999945;28;1089;-56
2023/03/23 09:47:26;;;;;;;;;;;;;;;15.51;51.39;101045.56;5000036;28;997;-56
2023/03/23 09:49:54;;;;;;;;;;;;;;;15.31;51.62;101043.47;5026961;28;1213;-56
2023/03/23 09:52:20;;;;;;;;;;;;;;;15.21;52.12;101047.75;4999770;28;1196;-56
2023/03/23 09:54:54;;;;;;;;;;;;;;;16.07;50.27;101048.84;4999817;28;1216;-56
2023/03/23 09:57:38;;;;;;;;;;;;;;;17.14;47.10;101041.41;5044056;28;2248;-58
2023/03/23 10:00:07;;;;;;;;;;;;;;;16.01;49.88;101049.06;4999802;28;1267;-55
2023/03/23 10:03:02;;;;;;;;;;;;;;;15.60;51.06;101044.03;4999446;28;1287;-52
2023/03/23 10:05:31;;;;;;;;;;;;;;;15.39;51.79;101043.00;4991752;28;1657;-54
2023/03/23 10:07:57;;;;;;;;;;;;;;;15.25;52.00;101037.13;4994266;28;1116;-54
2023/03/23 10:10:45;;;;;;;;;;;;;;;15.43;51.89;101032.34;4999637;28;1083;-55
2023/03/23 10:13:17;;;;;;;;;;;;;;;17.14;47.39;101032.31;4996639;28;1176;-52
2023/03/23 10:15:42;;;;;;;;;;;;;;;16.20;49.50;101031.09;4999064;28;1902;-55
2023/03/23 10:18:08;;;;;;;;;;;;;;;15.79;50.60;101032.66;5017383;28;1091;-52
2023/03/23 10:20:46;;;;;;;;;;;;;;;15.46;51.54;101021.69;4979556;28;1081;-56
2023/03/23 10:23:11;;;;;;;;;;;;;;;15.32;51.94;101025.94;4993930;28;1014;-54
2023/03/23 10:25:38;;;;;;;;;;;;;;;15.18;52.16;101028.25;4998946;28;1192;-56
2023/03/23 10:28:10;;;;;;;;;;;;;;;16.43;49.42;101026.25;4997739;28;1137;-56
2023/03/23 10:30:46;;;;;;;;;;;;;;;16.83;48.03;101018.47;4986877;28;1347;-55
2023/03/23 10:33:18;;;;;;;;;;;;;;;15.90;50.56;101023.47;4984770;28;1086;-55
2023/03/23 10:36:03;;;;;;;;;;;;;;;15.64;51.06;101023.22;4998660;28;1902;-56
2023/03/23 10:38:36;;;;;;;;;;;;;;;15.42;51.85;101026.03;4998559;28;1176;-56
2023/03/23 10:41:05;;;;;;;;;;;;;;;16.52;49.01;101016.44;4997191;28;1136;-55
2023/03/23 10:43:30;;;;;;;;;;;;;;;16.73;48.12;101031.09;4986165;28;1069;-56
2023/03/23 10:46:01;;;;;;;;;;;;;;;15.94;50.53;101021.03;5027401;28;1304;-56
2023/03/23 10:48:32;;;;;;;;;;;;;;;15.65;51.16;101024.88;4988674;28;1073;-54
2023/03/23 10:50:58;;;;;;;;;;;;;;;15.40;51.68;101020.81;5024188;28;1060;-54
2023/03/23 10:53:34;;;;;;;;;;;;;;;15.25;52.29;101015.19;4997433;28;1073;-52
2023/03/23 10:56:00;;;;;;;;;;;;;;;15.48;51.67;101022.25;4996657;28;1979;-54
2023/03/23 10:58:28;;;;;;;;;;;;;;;17.03;47.76;101015.00;4988470;28;1294;-54
2023/03/23 11:00:54;;;;;;;;;;;;;;;16.15;49.86;101017.31;4979150;28;1373;-54
2023/03/23 11:03:22;;;;;;;;;;;;;;;15.68;51.22;101005.19;4991270;28;1266;-54
2023/03/23 11:05:50;;;;;;;;;;;;;;;15.46;51.53;101004.41;4996963;28;1124;-53
2023/03/23 11:08:18;;;;;;;;;;;;;;;15.62;51.73;100997.16;4998647;28;1203;-55
2023/03/23 11:10:53;;;;;;;;;;;;;;;17.03;47.87;100999.34;5029908;28;1079;-54
2023/03/23 11:13:20;;;;;;;;;;;;;;;16.04;50.37;100991.72;4998448;28;1075;-53
2023/03/23 11:15:46;;;;;;;;;;;;;;;15.66;51.41;100998.31;4997720;28;1973;-51
2023/03/23 11:18:13;;;;;;;;;;;;;;;15.47;51.67;100995.13;4998166;28;1180;-54
2023/03/23 11:20:42;;;;;;;;;;;;;;;15.30;52.26;100990.56;4998312;28;1504;-53
2023/03/23 11:23:16;;;;;;;;;;;;;;;15.88;50.99;100996.31;5029897;28;1076;-52
2023/03/23 11:25:50;;;;;;;;;;;;;;;17.19;47.33;100997.44;4997861;28;1204;-52
2023/03/23 11:28:15;;;;;;;;;;;;;;;16.11;50.05;100987.94;5011943;28;891;-50
2023/03/23 11:30:41;;;;;;;;;;;;;;;15.71;51.08;100985.47;4989529;28;1101;-50
2023/03/23 11:33:07;;;;;;;;;;;;;;;15.50;51.60;100987.22;4997720;28;1224;-51
2023/03/23 11:35:32;;;;;;;;;;;;;;;15.36;52.04;100988.72;5029415;28;1906;-53
2023/03/23 11:37:58;;;;;;;;;;;;;;;16.00;50.74;100995.28;4997447;28;1200;-52
2023/03/23 11:40:25;;;;;;;;;;;;;;;16.99;48.11;100995.47;5017940;28;894;-53
2023/03/23 11:43:01;;;;;;;;;;;;;;;16.03;50.49;100987.34;4996296;28;1131;-54
2023/03/23 11:45:35;;;;;;;;;;;;;;;15.65;51.37;100989.22;4997327;28;1037;-53
2023/03/23 11:48:07;;;;;;;;;;;;;;;15.42;51.99;100992.31;4984241;28;1129;-51
2023/03/23 11:50:34;;;;;;;;;;;;;;;15.42;52.13;100992.31;4997669;28;1184;-54
2023/03/23 11:53:11;;;;;;;;;;;;;;;16.90;48.35;100989.69;5029058;28;1243;-54
2023/03/23 11:55:52;;;;;;;;;;;;;;;16.13;50.08;100992.09;5028375;28;1914;-52
2023/03/23 11:58:18;;;;;;;;;;;;;;;15.66;51.36;100988.16;5028116;28;1068;-53
2023/03/23 12:01:04;;;;;;;;;;;;;;;15.43;52.18;100988.50;4997520;28;1275;-52
2023/03/23 12:03:33;;;;;;;;;;;;;;;15.74;51.66;100984.09;4995586;28;1688;-53
2023/03/23 12:06:04;;;;;;;;;;;;;;;17.19;47.69;100985.63;4997465;28;1092;-52
2023/03/23 12:08:30;;;;;;;;;;;;;;;16.13;50.32;100978.38;4984340;28;1041;-53
2023/03/23 12:10:56;;;;;;;;;;;;;;;15.73;51.25;100983.25;4996572;28;1045;-52
2023/03/23 12:13:52;;;;;;;;;;;;;;;15.51;51.73;100985.28;4997222;28;1056;-52
2023/03/23 12:16:22;;;;;;;;;;;;;;;15.31;52.38;100981.28;4996550;28;2049;-53
2023/03/23 12:18:48;;;;;;;;;;;;;;;15.55;51.79;100976.28;5027802;28;1148;-54
2023/03/23 12:21:16;;;;;;;;;;;;;;;17.06;48.35;100971.31;4997596;28;1036;-53
2023/03/23 12:23:45;;;;;;;;;;;;;;;16.17;50.30;100975.91;4983759;28;1208;-53
2023/03/23 12:26:29;;;;;;;;;;;;;;;15.76;51.23;100968.22;5028826;28;1199;-52
2023/03/23 12:28:58;;;;;;;;;;;;;;;15.53;51.97;100969.41;5014623;28;1078;-53
2023/03/23 12:31:26;;;;;;;;;;;;;;;15.33;52.63;100970.06;4996820;28;1413;-52
2023/03/23 12:33:52;;;;;;;;;;;;;;;15.22;52.63;100971.88;4996379;28;1176;-54
2023/03/23 12:36:36;;;;;;;;;;;;;;;15.13;52.84;100957.81;4996876;28;1910;-53
2023/03/23 12:39:20;;;;;;;;;;;;;;;16.65;49.59;100964.84;4984388;28;1196;-52
2023/03/23 12:41:46;;;;;;;;;;;;;;;16.62;49.49;100971.72;4996976;28;1040;-52
2023/03/23 12:44:13;;;;;;;;;;;;;;;15.87;51.36;100961.72;4996909;28;1108;-53
2023/03/23 12:46:45;;;;;;;;;;;;;;;15.53;51.92;100967.50;4994926;28;1207;-48
2023/03/23 12:49:17;;;;;;;;;;;;;;;15.37;52.36;100972.00;5014658;28;1297;-52
2023/03/23 12:51:55;;;;;;;;;;;;;;;15.63;52.17;100966.75;4985208;28;1321;-46
2023/03/23 12:54:23;;;;;;;;;;;;;;;16.90;48.59;100966.88;4979940;28;1408;-47
2023/03/23 12:57:08;;;;;;;;;;;;;;;15.95;51.14;100962.31;4994364;28;1970;-49
2023/03/23 12:59:39;;;;;;;;;;;;;;;15.53;52.16;100955.72;4996058;28;890;-50
2023/03/23 13:02:13;;;;;;;;;;;;;;;15.34;52.32;100958.81;4993935;28;1108;-52
2023/03/23 13:04:40;;;;;;;;;;;;;;;15.24;52.57;100950.53;4994566;28;1190;-49
2023/03/23 13:07:07;;;;;;;;;;;;;;;16.23;50.50;100961.94;4979350;28;1317;-52
2023/03/23 13:09:40;;;;;;;;;;;;;;;16.94;48.29;100951.50;4976806;28;1484;-50
2023/03/23 13:12:07;;;;;;;;;;;;;;;15.91;51.08;100946.41;4977041;28;1295;-48